Time;durP1;ratioP1;P1;durP2;ratioP2;P2;SDS_P1;SDS_P2;PMS_P1;PMS_P2;Temp;Humidity;BMP_temperature;BMP_pressure;BME280_temperature;BME280_humidity;BME280_pressure;Samples;Min_cycle;Max_cycle;Signal;HPM_P1;HPM_P2
2022/01/10 00:00:13;;;;;;;;;34.50;31.25;;;;;6.20;100.00;100174.91;5059909;28;45368;-63
2022/01/10 00:02:40;;;;;;;;;37.50;30.25;;;;;6.16;100.00;100181.13;5058431;28;45447;-65
2022/01/10 00:05:06;;;;;;;;;38.50;32.25;;;;;6.25;100.00;100193.91;5057808;28;45368;-67
2022/01/10 00:07:31;;;;;;;;;37.00;34.00;;;;;6.28;100.00;100194.66;5057366;28;45293;-59
2022/01/10 00:09:57;;;;;;;;;39.25;33.75;;;;;6.31;100.00;100195.47;5057772;28;45368;-66
2022/01/10 00:12:22;;;;;;;;;42.25;34.25;;;;;6.31;100.00;100192.84;5052661;28;45391;-65
2022/01/10 00:14:47;;;;;;;;;41.50;36.00;;;;;6.31;100.00;100192.84;5056883;28;46099;-62
2022/01/10 00:17:13;;;;;;;;;39.25;34.50;;;;;6.36;100.00;100202.28;5057991;28;45338;-63
2022/01/10 00:19:38;;;;;;;;;37.00;34.75;;;;;6.33;100.00;100204.13;5056469;28;45771;-61
2022/01/10 00:22:06;;;;;;;;;38.25;32.25;;;;;6.40;100.00;100210.91;5057801;28;45180;-62
2022/01/10 00:24:32;;;;;;;;;44.50;34.00;;;;;6.43;100.00;100211.66;5058338;28;46391;-60
2022/01/10 00:26:57;;;;;;;;;39.50;35.25;;;;;6.43;100.00;100219.50;5057520;28;45447;-62
2022/01/10 00:29:22;;;;;;;;;41.75;36.75;;;;;6.47;100.00;100222.91;5039000;28;45340;-61
2022/01/10 00:31:48;;;;;;;;;40.25;35.00;;;;;6.48;100.00;100224.59;5056609;28;45469;-60
2022/01/10 00:34:13;;;;;;;;;38.75;33.75;;;;;6.35;100.00;100197.09;5056470;28;46041;-64
2022/01/10 00:36:39;;;;;;;;;44.50;34.25;;;;;6.52;100.00;100239.28;5060121;28;45509;-66
2022/01/10 00:39:04;;;;;;;;;40.00;34.00;;;;;6.56;100.00;100235.69;5058455;28;45532;-65
2022/01/10 00:41:30;;;;;;;;;44.50;35.00;;;;;6.56;100.00;100248.75;5057425;28;45458;-65
2022/01/10 00:43:55;;;;;;;;;47.25;38.00;;;;;6.56;100.00;100240.03;5053127;28;45434;-67
2022/01/10 00:46:22;;;;;;;;;47.00;37.50;;;;;6.58;100.00;100243.47;5056179;28;45455;-66
2022/01/10 00:48:47;;;;;;;;;46.00;37.75;;;;;6.54;100.00;100240.09;5046240;28;45370;-66
2022/01/10 00:51:13;;;;;;;;;42.25;34.50;;;;;6.61;100.00;100239.94;5076602;28;45367;-64
2022/01/10 00:53:38;;;;;;;;;47.25;38.25;;;;;6.60;100.00;100249.50;5077555;27;45870;-63
2022/01/10 00:56:08;;;;;;;;;48.00;37.25;;;;;6.59;100.00;100245.19;5076730;28;45378;-60
2022/01/10 00:58:33;;;;;;;;;47.25;37.00;;;;;6.59;100.00;100255.63;5059324;28;45466;-64
2022/01/10 01:00:59;;;;;;;;;45.25;37.50;;;;;6.61;100.00;100253.00;5076253;28;45479;-67
2022/01/10 01:03:24;;;;;;;;;49.00;38.50;;;;;6.56;100.00;100247.88;5056673;28;46022;-62
2022/01/10 01:05:49;;;;;;;;;45.75;38.00;;;;;6.56;100.00;100251.38;5055640;28;45395;-65
2022/01/10 01:08:15;;;;;;;;;41.00;36.25;;;;;6.57;100.00;100258.31;5037473;28;45377;-66
2022/01/10 01:24:05;;;;;;;;;43.75;36.25;;;;;6.49;100.00;100291.66;5055877;28;45510;-64
2022/01/10 01:26:34;;;;;;;;;43.25;38.00;;;;;6.49;100.00;100302.09;5056802;28;45405;-67
2022/01/10 01:28:59;;;;;;;;;42.50;37.00;;;;;6.46;100.00;100294.34;5055343;28;45510;-64
2022/01/10 01:31:25;;;;;;;;;45.75;35.50;;;;;6.46;100.00;100296.09;5055930;28;45890;-61
2022/01/10 01:33:50;;;;;;;;;64.00;48.00;;;;;6.46;100.00;100312.63;5056358;28;45492;-63
2022/01/10 01:36:21;;;;;;;;;49.25;37.75;;;;;6.40;100.00;100300.59;5039091;28;45461;-66
2022/01/10 01:38:46;;;;;;;;;41.75;35.00;;;;;6.46;100.00;100323.09;5056032;28;45281;-61
2022/01/10 01:41:23;;;;;;;;;45.00;36.75;;;;;6.45;100.00;100325.72;5055114;28;45332;-65
2022/01/10 01:43:50;;;;;;;;;47.00;37.50;;;;;6.45;100.00;100331.81;5053911;28;46261;-65
2022/01/10 01:46:17;;;;;;;;;45.25;35.50;;;;;6.44;100.00;100335.34;5054132;28;45485;-66
2022/01/10 01:48:42;;;;;;;;;45.25;36.75;;;;;6.43;100.00;100328.41;5056170;28;45469;-67
2022/01/10 01:51:08;;;;;;;;;39.50;32.50;;;;;6.43;100.00;100328.41;5055149;28;45489;-64
2022/01/10 01:53:36;;;;;;;;;34.25;31.00;;;;;6.42;100.00;100340.59;5038116;28;47071;-65
2022/01/10 01:56:04;;;;;;;;;37.75;31.25;;;;;6.40;100.00;100341.53;5055659;28;45359;-65
2022/01/10 01:58:29;;;;;;;;;37.50;32.00;;;;;6.40;100.00;100352.00;5054619;28;45288;-64
2022/01/10 02:00:55;;;;;;;;;35.00;32.50;;;;;6.37;100.00;100352.91;5055985;28;45521;-67
2022/01/10 02:03:20;;;;;;;;;36.50;32.00;;;;;6.35;100.00;100351.22;5037470;28;46095;-62
2022/01/10 02:05:46;;;;;;;;;31.75;31.75;;;;;6.33;100.00;100353.91;5055425;28;45434;-58
2022/01/10 02:08:12;;;;;;;;;35.25;29.00;;;;;6.29;100.00;100347.88;5055512;28;45328;-65
2022/01/10 02:10:38;;;;;;;;;34.75;28.75;;;;;6.28;100.00;100356.63;5054463;28;45529;-64
2022/01/10 02:13:03;;;;;;;;;33.50;30.00;;;;;6.24;100.00;100357.59;5055622;28;45316;-64
2022/01/10 02:18:36;;;;;;;;;37.25;32.25;;;;;6.22;100.00;100362.00;5034512;28;45397;-64
2022/01/10 02:21:05;;;;;;;;;47.25;37.75;;;;;6.17;100.00;100368.25;5036012;28;45538;-66
2022/01/10 02:23:31;;;;;;;;;54.00;42.50;;;;;6.12;100.00;100371.84;5048323;28;46926;-62
2022/01/10 02:25:57;;;;;;;;;48.75;41.00;;;;;6.09;100.00;100374.53;5055244;28;45509;-66
2022/01/10 02:28:23;;;;;;;;;56.50;44.25;;;;;6.01;100.00;100363.41;5055500;28;45415;-63
2022/01/10 02:30:56;;;;;;;;;46.25;38.25;;;;;6.00;100.00;100372.13;5056681;28;45621;-67
2022/01/10 02:33:29;;;;;;;;;47.75;38.50;;;;;5.94;100.00;100365.28;5059684;28;46125;-68
2022/01/10 02:36:06;;;;;;;;;54.00;42.75;;;;;5.89;100.00;100361.91;5062082;28;45238;-64
2022/01/10 02:38:32;;;;;;;;;57.50;43.75;;;;;5.78;100.00;100354.34;5043624;28;45398;-60
2022/01/10 02:40:58;;;;;;;;;53.75;42.00;;;;;5.81;100.00;100363.84;5059447;28;45637;-65
2022/01/10 02:43:24;;;;;;;;;53.50;44.00;;;;;5.76;100.00;100368.34;5058397;28;46250;-62
2022/01/10 02:45:49;;;;;;;;;53.25;44.00;;;;;5.72;100.00;100374.53;5055662;28;45614;-64
2022/01/10 02:48:15;;;;;;;;;51.75;40.00;;;;;5.65;100.00;100365.97;5059137;28;45554;-63
2022/01/10 02:50:40;;;;;;;;;50.25;41.50;;;;;5.62;100.00;100379.94;5059407;28;45366;-64
2022/01/10 02:53:05;;;;;;;;;52.75;40.75;;;;;5.58;100.00;100385.25;5040915;28;46885;-62
2022/01/10 02:55:31;;;;;;;;;51.75;43.25;;;;;5.54;100.00;100387.94;5058421;28;45308;-67
2022/01/10 02:57:56;;;;;;;;;52.25;43.50;;;;;5.50;100.00;100395.88;5059702;28;45269;-65
2022/01/10 03:00:25;;;;;;;;;53.75;43.75;;;;;5.46;100.00;100396.84;5059574;28;45252;-66
2022/01/10 03:02:53;;;;;;;;;56.25;43.00;;;;;5.39;100.00;100402.19;5059239;28;45558;-67
2022/01/10 03:05:20;;;;;;;;;52.75;41.50;;;;;5.37;100.00;100405.72;5062073;28;45323;-66
2022/01/10 03:07:48;;;;;;;;;56.50;45.75;;;;;5.35;100.00;100404.88;5062139;28;45290;-64
2022/01/10 03:10:14;;;;;;;;;55.25;43.75;;;;;5.34;100.00;100411.00;5061776;28;45166;-66
2022/01/10 03:12:39;;;;;;;;;69.50;52.00;;;;;5.31;100.00;100411.06;5059766;28;46111;-65
2022/01/10 03:15:07;;;;;;;;;52.25;42.50;;;;;5.28;100.00;100425.00;5059264;28;45405;-64
2022/01/10 03:17:33;;;;;;;;;56.75;45.75;;;;;5.26;100.00;100427.66;5037460;28;45819;-67
2022/01/10 03:19:58;;;;;;;;;53.25;43.25;;;;;5.26;100.00;100427.66;5055201;28;45737;-66
2022/01/10 03:22:26;;;;;;;;;55.00;43.50;;;;;5.23;100.00;100425.13;5058441;28;45433;-66
2022/01/10 03:24:52;;;;;;;;;55.25;45.00;;;;;5.23;100.00;100432.94;5059147;28;45340;-68
2022/01/10 03:27:18;;;;;;;;;55.75;43.50;;;;;5.22;100.00;100440.78;5041077;28;45248;-64
2022/01/10 03:29:43;;;;;;;;;51.25;41.00;;;;;5.22;100.00;100446.88;5057968;28;45166;-63
2022/01/10 03:32:08;;;;;;;;;60.75;46.25;;;;;5.20;100.00;100435.63;5058043;28;46071;-64
2022/01/10 03:34:34;;;;;;;;;60.00;44.25;;;;;5.20;100.00;100450.38;5058226;28;45450;-66
2022/01/10 03:37:00;;;;;;;;;54.75;45.75;;;;;5.19;100.00;100443.47;5057401;28;45383;-64
2022/01/10 03:39:25;;;;;;;;;57.00;45.25;;;;;5.14;100.00;100446.19;5056482;28;45640;-68
2022/01/10 03:41:51;;;;;;;;;61.00;50.00;;;;;5.10;100.00;100447.97;5057353;28;46921;-66
2022/01/10 03:44:17;;;;;;;;;60.25;47.00;;;;;5.14;100.00;100445.31;5039104;28;45399;-67
2022/01/10 03:46:42;;;;;;;;;59.75;47.00;;;;;5.14;100.00;100447.91;5058679;28;45418;-64
2022/01/10 03:49:08;;;;;;;;;53.25;44.25;;;;;5.12;100.00;100451.41;5059935;28;45599;-68
2022/01/10 03:51:33;;;;;;;;;55.50;43.00;;;;;5.11;100.00;100460.13;5058510;28;45360;-66
2022/01/10 03:53:59;;;;;;;;;55.50;43.50;;;;;5.05;100.00;100448.97;5057501;28;45438;-65
2022/01/10 03:56:27;;;;;;;;;55.50;44.50;;;;;5.09;100.00;100466.28;5056247;28;45381;-63
2022/01/10 03:58:52;;;;;;;;;51.25;42.25;;;;;5.06;100.00;100461.94;5039861;28;45356;-62
2022/01/10 04:01:18;;;;;;;;;55.75;46.00;;;;;4.97;100.00;100455.19;5057384;28;45450;-63
2022/01/10 04:03:43;;;;;;;;;56.75;45.25;;;;;5.05;100.00;100481.09;5057447;28;45379;-63
2022/01/10 04:06:09;;;;;;;;;52.50;43.75;;;;;5.02;100.00;100486.38;5058695;28;45207;-64
2022/01/10 04:08:36;;;;;;;;;52.50;42.75;;;;;5.02;100.00;100488.13;5059086;28;45220;-66
2022/01/10 04:11:02;;;;;;;;;51.75;44.25;;;;;4.97;100.00;100477.78;5057269;28;45391;-58
2022/01/10 04:13:28;;;;;;;;;57.00;43.50;;;;;4.97;100.00;100483.00;5056900;28;45364;-61
2022/01/10 04:15:53;;;;;;;;;54.75;45.00;;;;;4.94;100.00;100489.13;5057010;28;45419;-58
2022/01/10 04:18:19;;;;;;;;;53.75;44.25;;;;;4.92;100.00;100497.84;5057353;28;45373;-59
2022/01/10 04:20:45;;;;;;;;;54.25;44.50;;;;;4.88;100.00;100499.66;5061671;28;46202;-58
2022/01/10 04:23:12;;;;;;;;;55.75;45.00;;;;;4.87;100.00;100505.78;5058691;28;45411;-59
2022/01/10 04:25:38;;;;;;;;;55.75;46.00;;;;;4.79;100.00;100492.88;5059849;28;45391;-58
2022/01/10 04:28:04;;;;;;;;;65.75;51.00;;;;;4.84;100.00;100511.03;5058953;28;45196;-57
2022/01/10 04:30:30;;;;;;;;;60.25;48.00;;;;;4.81;100.00;100516.31;5059068;28;45372;-57
2022/01/10 04:32:58;;;;;;;;;55.25;45.00;;;;;4.78;100.00;100524.19;5058316;28;45364;-60
2022/01/10 04:35:24;;;;;;;;;56.75;45.75;;;;;4.78;100.00;100525.03;5058777;28;45310;-59
2022/01/10 04:37:49;;;;;;;;;61.75;49.25;;;;;4.78;100.00;100524.19;5057334;28;45581;-66
2022/01/10 04:40:15;;;;;;;;;56.50;47.25;;;;;4.75;100.00;100524.19;5056897;28;47307;-63
2022/01/10 04:42:41;;;;;;;;;60.75;50.25;;;;;4.72;100.00;100526.84;5039614;28;45285;-67
2022/01/10 04:45:06;;;;;;;;;61.25;48.25;;;;;4.69;100.00;100538.22;5057829;28;45395;-64
2022/01/10 04:47:32;;;;;;;;;58.25;46.00;;;;;4.68;100.00;100547.75;5058848;28;45209;-66
2022/01/10 04:52:30;;;;;;;;;63.25;51.00;;;;;4.65;100.00;100553.00;5057021;28;45351;-66
2022/01/10 04:54:55;;;;;;;;;62.25;49.25;;;;;4.62;100.00;100555.66;5057612;28;45339;-66
2022/01/10 04:57:21;;;;;;;;;65.25;49.75;;;;;4.66;100.00;100569.53;5056723;28;45549;-65
2022/01/10 04:59:46;;;;;;;;;64.75;51.00;;;;;4.59;100.00;100565.28;5057386;28;47068;-66
2022/01/10 05:02:12;;;;;;;;;59.50;49.25;;;;;4.59;100.00;100571.34;5056541;28;45305;-64
2022/01/10 05:04:38;;;;;;;;;62.25;51.25;;;;;4.54;100.00;100560.16;5038190;28;45292;-61
2022/01/10 05:07:04;;;;;;;;;59.50;49.25;;;;;4.57;100.00;100574.88;5056494;28;45265;-64
2022/01/10 05:09:29;;;;;;;;;67.00;52.00;;;;;4.55;100.00;100576.66;5056735;28;46393;-66
2022/01/10 05:11:55;;;;;;;;;66.00;51.50;;;;;4.50;100.00;100574.97;5057946;28;45242;-66
2022/01/10 05:14:21;;;;;;;;;70.25;52.25;;;;;4.52;100.00;100586.22;5059804;28;45751;-66
2022/01/10 05:16:47;;;;;;;;;65.25;49.75;;;;;4.50;100.00;100589.72;5057541;28;45521;-65
2022/01/10 05:19:12;;;;;;;;;68.25;53.00;;;;;4.51;100.00;100588.84;5056005;28;46166;-68
2022/01/10 05:21:38;;;;;;;;;69.00;54.25;;;;;4.48;100.00;100586.28;5054753;28;45401;-63
2022/01/10 05:24:04;;;;;;;;;63.75;49.25;;;;;4.45;100.00;100588.94;5039061;28;45343;-63
2022/01/10 05:26:29;;;;;;;;;66.50;52.00;;;;;4.47;100.00;100593.25;5058712;28;45601;-62
2022/01/10 05:28:57;;;;;;;;;62.50;50.75;;;;;4.47;100.00;100601.06;5057908;28;47080;-63
2022/01/10 05:31:23;;;;;;;;;68.00;52.50;;;;;4.41;100.00;100595.94;5057558;28;45232;-65
2022/01/10 05:33:48;;;;;;;;;62.00;50.00;;;;;4.45;100.00;100605.44;5056775;28;45277;-62
2022/01/10 05:36:14;;;;;;;;;61.75;51.00;;;;;4.46;100.00;100614.09;5057685;28;45644;-61
2022/01/10 05:38:39;;;;;;;;;67.00;53.50;;;;;4.43;100.00;100608.94;5056328;28;45301;-64
2022/01/10 05:41:05;;;;;;;;;56.75;48.00;;;;;4.39;100.00;100605.53;5058017;28;45262;-67
2022/01/10 05:43:30;;;;;;;;;69.25;52.00;;;;;4.43;100.00;100620.22;5056741;28;45288;-63
2022/01/10 05:45:56;;;;;;;;;60.00;48.25;;;;;4.44;100.00;100618.47;5038973;28;45493;-67
2022/01/10 05:48:25;;;;;;;;;63.75;49.25;;;;;4.43;100.00;100628.06;5062055;28;45591;-66
2022/01/10 05:50:51;;;;;;;;;62.25;50.00;;;;;4.45;100.00;100635.81;5058583;28;45311;-66
2022/01/10 05:53:18;;;;;;;;;61.75;49.50;;;;;4.45;100.00;100635.81;5059230;28;45306;-67
2022/01/10 05:55:45;;;;;;;;;66.50;51.00;;;;;4.44;100.00;100648.00;5040447;28;45546;-64
2022/01/10 05:58:11;;;;;;;;;62.25;48.00;;;;;4.43;100.00;100648.00;5057052;28;46071;-65
2022/01/10 06:00:37;;;;;;;;;66.25;49.50;;;;;4.46;100.00;100659.25;5056448;28;45415;-65
2022/01/10 06:03:02;;;;;;;;;62.75;49.25;;;;;4.38;100.00;100655.91;5056328;28;45462;-66
2022/01/10 06:05:31;;;;;;;;;63.25;50.75;;;;;4.48;100.00;100669.66;5056961;28;45272;-63
2022/01/10 06:08:02;;;;;;;;;65.75;51.50;;;;;4.45;100.00;100670.56;5060027;28;45328;-66
2022/01/10 06:10:29;;;;;;;;;68.75;56.00;;;;;4.42;100.00;100667.13;5060179;28;45364;-66
2022/01/10 06:12:55;;;;;;;;;68.50;53.25;;;;;4.39;100.00;100675.84;5059292;28;45475;-66
2022/01/10 06:15:21;;;;;;;;;69.75;53.75;;;;;4.37;100.00;100691.47;5061086;28;45403;-65
2022/01/10 06:17:46;;;;;;;;;73.25;56.00;;;;;4.40;100.00;100688.00;5060800;28;46027;-67
2022/01/10 06:20:12;;;;;;;;;66.50;52.25;;;;;4.44;100.00;100696.63;5060535;28;45372;-67
2022/01/10 06:22:37;;;;;;;;;64.50;50.75;;;;;4.45;100.00;100704.44;5060794;28;45430;-67
2022/01/10 06:25:05;;;;;;;;;62.50;49.00;;;;;4.47;100.00;100717.41;5062285;28;45289;-66
2022/01/10 06:27:30;;;;;;;;;67.25;52.00;;;;;4.45;100.00;100719.19;5063672;28;46483;-68
2022/01/10 06:29:55;;;;;;;;;67.75;51.25;;;;;4.36;100.00;100709.75;5060864;28;45466;-66
2022/01/10 06:32:21;;;;;;;;;67.50;52.25;;;;;4.45;100.00;100733.06;5066675;28;45179;-65
2022/01/10 06:34:46;;;;;;;;;59.50;49.25;;;;;4.48;100.00;100732.16;5066625;28;45295;-65
2022/01/10 06:37:12;;;;;;;;;61.75;50.00;;;;;4.50;100.00;100733.00;5042365;28;48063;-67
2022/01/10 06:39:37;;;;;;;;;64.25;49.50;;;;;4.52;100.00;100733.84;5058738;28;45553;-66
2022/01/10 06:42:03;;;;;;;;;54.25;42.00;;;;;4.52;100.00;100731.25;5059137;28;45367;-68
2022/01/10 06:44:29;;;;;;;;;55.00;42.75;;;;;4.56;100.00;100748.56;5059989;28;45279;-67
2022/01/10 06:46:54;;;;;;;;;53.75;44.25;;;;;4.57;100.00;100749.44;5058768;28;46346;-65
2022/01/10 06:49:20;;;;;;;;;52.25;40.75;;;;;4.47;100.00;100744.34;5040627;28;45536;-68
2022/01/10 06:51:45;;;;;;;;;53.50;41.75;;;;;4.51;100.00;100740.81;5061584;28;45849;-69
2022/01/10 06:54:10;;;;;;;;;56.25;43.00;;;;;4.69;100.00;100772.72;5042879;28;46176;-65
2022/01/10 06:56:36;;;;;;;;;46.25;40.25;;;;;4.73;100.00;100782.22;5058263;28;45421;-63
2022/01/10 06:59:01;;;;;;;;;46.50;37.25;;;;;4.77;100.00;100791.72;5059464;28;45443;-68
2022/01/10 07:01:27;;;;;;;;;47.25;36.00;;;;;4.78;100.00;100796.06;5059539;28;45238;-66
2022/01/10 07:03:54;;;;;;;;;48.00;36.75;;;;;4.79;100.00;100787.38;5061785;28;45505;-66
2022/01/10 07:06:19;;;;;;;;;53.50;40.00;;;;;4.83;100.00;100807.28;5060901;28;46208;-63
2022/01/10 07:08:45;;;;;;;;;53.75;43.25;;;;;4.89;100.00;100819.41;5061646;28;45327;-65
2022/01/10 07:11:11;;;;;;;;;43.00;36.50;;;;;4.86;100.00;100824.66;5061769;28;45309;-65
2022/01/10 07:13:36;;;;;;;;;55.25;43.25;;;;;4.70;100.00;100797.91;5044407;28;45527;-65
2022/01/10 07:16:02;;;;;;;;;58.50;46.00;;;;;4.89;100.00;100834.16;5059603;28;45489;-67
2022/01/10 07:18:27;;;;;;;;;62.00;45.50;;;;;4.98;100.00;100847.06;5059098;28;45895;-67
2022/01/10 07:20:53;;;;;;;;;58.25;46.00;;;;;5.05;100.00;100855.69;5061006;28;45240;-65
2022/01/10 07:23:18;;;;;;;;;60.25;46.00;;;;;5.08;100.00;100861.72;5061557;28;45492;-66
2022/01/10 07:25:43;;;;;;;;;64.50;49.00;;;;;5.07;100.00;100870.44;5060297;28;46029;-68
2022/01/10 07:28:09;;;;;;;;;53.50;43.75;;;;;5.05;100.00;100873.94;5059299;28;45355;-63
2022/01/10 07:30:34;;;;;;;;;62.25;47.75;;;;;4.99;100.00;100877.47;5058850;28;45415;-68
2022/01/10 07:33:00;;;;;;;;;57.75;45.75;;;;;4.93;100.00;100880.16;5061032;28;45636;-66
2022/01/10 07:35:25;;;;;;;;;56.25;43.75;;;;;4.95;100.00;100891.44;5058900;28;45486;-65
2022/01/10 07:37:51;;;;;;;;;55.50;46.50;;;;;4.95;100.00;100899.25;5060677;28;45259;-64
2022/01/10 07:40:16;;;;;;;;;60.75;46.50;;;;;4.97;100.00;100914.03;5060086;28;45277;-65
2022/01/10 07:42:43;;;;;;;;;59.75;45.00;;;;;4.95;100.00;100915.78;5061785;28;45554;-67
2022/01/10 07:45:09;;;;;;;;;57.25;43.75;;;;;4.96;100.00;100924.44;5063825;28;46082;-64
2022/01/10 07:47:36;;;;;;;;;64.00;49.00;;;;;4.96;100.00;100932.28;5064967;28;45370;-66
2022/01/10 07:50:03;;;;;;;;;58.25;46.00;;;;;4.92;100.00;100927.97;5059287;28;45349;-66
2022/01/10 07:52:29;;;;;;;;;54.50;42.00;;;;;4.81;100.00;100935.94;5059542;28;45391;-68
2022/01/10 07:54:56;;;;;;;;;55.50;44.25;;;;;4.70;100.00;100950.78;5057689;28;45502;-67
2022/01/10 07:57:21;;;;;;;;;56.75;45.25;;;;;4.62;100.00;100954.31;5039023;28;45282;-66
2022/01/10 07:59:47;;;;;;;;;51.25;38.75;;;;;4.62;100.00;100971.72;5057182;28;45268;-63
2022/01/10 08:02:13;;;;;;;;;44.25;36.75;;;;;4.61;100.00;100962.16;5060283;28;45222;-68
2022/01/10 08:04:38;;;;;;;;;60.75;47.00;;;;;4.60;100.00;100952.63;5058859;28;46132;-66
2022/01/10 08:07:04;;;;;;;;;43.25;35.75;;;;;4.67;100.00;100970.78;5059065;28;45218;-68
2022/01/10 08:09:30;;;;;;;;;44.50;35.00;;;;;4.70;100.00;100982.06;5060342;28;45335;-65
2022/01/10 08:11:59;;;;;;;;;31.50;25.25;;;;;4.72;100.00;100988.13;5058383;28;45570;-67
2022/01/10 08:14:29;;;;;;;;;26.50;25.25;;;;;4.55;100.00;100960.47;5055783;28;45633;-68
2022/01/10 08:16:54;;;;;;;;;29.75;23.00;;;;;4.72;100.00;100999.41;5040338;28;45367;-66
2022/01/10 08:19:20;;;;;;;;;27.75;23.75;;;;;4.72;100.00;100999.41;5058273;28;45773;-62
2022/01/10 08:21:46;;;;;;;;;20.25;18.25;;;;;4.74;100.00;100982.03;5058975;28;45330;-56
2022/01/10 08:24:11;;;;;;;;;31.25;23.25;;;;;4.75;100.00;100988.09;5060619;28;46601;-69
2022/01/10 08:26:36;;;;;;;;;23.00;20.00;;;;;4.75;100.00;100998.50;5059480;28;45320;-71
2022/01/10 08:29:02;;;;;;;;;22.25;18.25;;;;;4.76;100.00;101000.22;5059936;28;45594;-72
2022/01/10 08:31:27;;;;;;;;;22.00;16.00;;;;;4.75;100.00;101007.22;5058158;28;45435;-68
2022/01/10 08:33:53;;;;;;;;;25.00;21.25;;;;;4.70;100.00;101011.59;5057856;28;45353;-68
2022/01/10 08:36:19;;;;;;;;;28.50;23.50;;;;;4.71;100.00;101022.88;5039136;28;45421;-64
2022/01/10 08:38:45;;;;;;;;;23.00;21.75;;;;;4.73;100.00;101026.31;5038683;28;45405;-66
2022/01/10 08:41:10;;;;;;;;;23.25;18.25;;;;;4.75;100.00;101033.28;5057945;28;45562;-66
2022/01/10 08:43:36;;;;;;;;;33.25;23.75;;;;;4.74;100.00;101031.53;5058123;28;45292;-66
2022/01/10 08:46:02;;;;;;;;;25.00;16.25;;;;;4.74;100.00;101023.72;5058009;28;45367;-62
2022/01/10 08:48:28;;;;;;;;;28.75;25.00;;;;;4.80;100.00;101038.44;5058265;28;45181;-61
2022/01/10 08:50:54;;;;;;;;;24.25;23.00;;;;;4.84;100.00;101034.94;5057873;28;45453;-67
2022/01/10 08:53:19;;;;;;;;;24.75;20.50;;;;;4.86;100.00;101038.41;5037939;28;45837;-63
2022/01/10 08:55:46;;;;;;;;;26.50;22.75;;;;;4.91;100.00;101049.66;5019439;28;45369;-65
2022/01/10 08:58:12;;;;;;;;;27.25;21.50;;;;;4.93;100.00;101058.31;5056209;28;45454;-72
2022/01/10 09:00:37;;;;;;;;;23.75;21.25;;;;;4.93;100.00;101071.34;5052938;28;45447;-69
2022/01/10 09:03:03;;;;;;;;;40.50;32.25;;;;;4.90;100.00;101071.38;5058202;28;45419;-73
2022/01/10 09:05:30;;;;;;;;;36.25;29.00;;;;;5.04;100.00;101084.28;5057097;28;45407;-66
2022/01/10 09:07:58;;;;;;;;;30.00;25.00;;;;;5.09;100.00;101084.25;5057259;28;45382;-63
2022/01/10 09:10:25;;;;;;;;;33.25;24.00;;;;;5.11;100.00;101079.88;5057432;28;45222;-63
2022/01/10 09:12:50;;;;;;;;;26.00;22.00;;;;;5.12;100.00;101085.06;5057118;28;45351;-64
2022/01/10 09:15:16;;;;;;;;;29.00;22.25;;;;;5.17;100.00;101091.97;5042063;28;45537;-60
2022/01/10 09:17:41;;;;;;;;;22.25;18.00;;;;;5.19;100.00;101093.72;5055615;28;45854;-67
2022/01/10 09:20:08;;;;;;;;;24.00;20.50;;;;;5.22;100.00;101083.25;5054470;28;45517;-59
2022/01/10 09:22:33;;;;;;;;;32.00;25.75;;;;;5.21;100.00;101097.16;5054993;28;46792;-67
2022/01/10 09:24:59;;;;;;;;;23.00;23.00;;;;;5.23;100.00;101097.13;5037213;28;45425;-61
2022/01/10 09:27:25;;;;;;;;;31.75;25.00;;;;;5.30;100.00;101095.34;5053412;28;45424;-67
2022/01/10 09:29:51;;;;;;;;;25.00;19.75;;;;;5.35;100.00;101098.78;5055267;28;45664;-67
2022/01/10 09:32:16;;;;;;;;;29.25;27.00;;;;;5.43;100.00;101109.16;5050967;28;46314;-70
2022/01/10 09:34:42;;;;;;;;;28.50;26.00;;;;;5.41;100.00;101110.03;5034635;28;45644;-69
2022/01/10 09:37:08;;;;;;;;;39.00;30.75;;;;;5.54;100.00;101117.72;5037081;28;45347;-66
2022/01/10 09:39:33;;;;;;;;;30.00;24.00;;;;;5.65;100.00;101122.81;5053776;28;45491;-64
2022/01/10 09:41:59;;;;;;;;;31.25;27.75;;;;;5.67;100.00;101121.94;5054459;28;46300;-61
2022/01/10 09:44:24;;;;;;;;;25.75;24.50;;;;;5.80;100.00;101135.69;5039594;28;45392;-67
2022/01/10 09:46:50;;;;;;;;;30.50;27.25;;;;;5.87;100.00;101136.50;5056058;28;45402;-68
2022/01/10 09:49:17;;;;;;;;;24.50;20.75;;;;;5.93;100.00;101133.81;5055918;28;45310;-68
2022/01/10 09:51:43;;;;;;;;;17.75;17.75;;;;;5.98;100.00;101149.44;5055536;28;45514;-68
2022/01/10 09:54:09;;;;;;;;;26.50;22.00;;;;;5.96;100.00;101157.28;5055257;28;45426;-61
2022/01/10 09:56:35;;;;;;;;;24.75;24.00;;;;;5.92;100.00;101158.19;5055912;28;45508;-65
2022/01/10 09:59:01;;;;;;;;;29.25;23.25;;;;;5.87;100.00;101160.00;5056631;28;45387;-66
2022/01/10 10:01:30;;;;;;;;;25.00;23.25;;;;;5.85;100.00;101166.97;5056908;28;46813;-62
2022/01/10 10:03:58;;;;;;;;;43.00;32.50;;;;;5.86;100.00;101166.09;5059986;28;45247;-65
2022/01/10 10:06:29;;;;;;;;;30.00;24.50;;;;;5.85;100.00;101167.88;5044177;28;45328;-68
2022/01/10 10:09:00;;;;;;;;;27.75;23.75;;;;;5.93;100.00;101178.19;5057687;28;45222;-62
2022/01/10 10:11:53;;;;;;;;;24.75;22.25;;;;;5.93;100.00;101178.19;5039045;28;48217;-68
2022/01/10 10:14:21;;;;;;;;;23.50;20.25;;;;;5.94;100.00;101181.69;5037291;28;45463;-63
2022/01/10 10:16:50;;;;;;;;;28.25;23.25;;;;;5.94;100.00;101184.31;5057229;28;45418;-69
2022/01/10 10:19:28;;;;;;;;;32.50;24.75;;;;;5.94;100.00;101186.91;5058904;28;45420;-68
2022/01/10 10:21:55;;;;;;;;;28.00;25.00;;;;;5.96;100.00;101185.16;5054544;28;46230;-64
2022/01/10 10:24:21;;;;;;;;;31.00;29.00;;;;;5.92;100.00;101179.09;5056142;28;45928;-67
2022/01/10 10:26:47;;;;;;;;;27.00;25.00;;;;;6.03;100.00;101188.56;5055574;28;45379;-68
2022/01/10 10:29:17;;;;;;;;;30.00;28.00;;;;;6.14;100.00;101187.59;5055864;28;45180;-66
2022/01/10 10:31:48;;;;;;;;;31.25;28.50;;;;;6.15;100.00;101191.03;5055034;28;47658;-68
2022/01/10 10:34:29;;;;;;;;;39.25;33.75;;;;;6.23;100.00;101198.81;5055613;28;45354;-67
2022/01/10 10:37:02;;;;;;;;;41.00;31.50;;;;;6.31;100.00;101204.78;5037917;28;45344;-68
2022/01/10 10:39:29;;;;;;;;;42.00;36.00;;;;;6.34;100.00;101201.25;5057196;28;45509;-69
2022/01/10 10:41:58;;;;;;;;;42.50;36.25;;;;;6.38;100.00;101205.59;5057836;28;45637;-63
2022/01/10 10:44:24;;;;;;;;;49.25;38.50;;;;;6.39;100.00;101208.16;5058305;28;45249;-66
2022/01/10 10:46:51;;;;;;;;;44.50;36.50;;;;;6.34;100.00;101196.91;5055997;28;45366;-64
2022/01/10 10:49:19;;;;;;;;;47.50;35.50;;;;;6.51;100.00;101216.75;5054919;28;45483;-65
2022/01/10 10:51:48;;;;;;;;;44.00;36.00;;;;;6.36;100.00;101196.88;5047995;28;46154;-64
2022/01/10 10:54:15;;;;;;;;;47.50;38.00;;;;;6.51;100.00;101220.22;5058048;28;45309;-64
2022/01/10 10:56:43;;;;;;;;;46.00;32.75;;;;;6.47;100.00;101225.50;5058070;28;45379;-63
2022/01/10 10:59:11;;;;;;;;;42.75;33.25;;;;;6.37;100.00;101223.00;5058667;28;45339;-67
2022/01/10 11:01:40;;;;;;;;;47.75;34.25;;;;;6.36;100.00;101228.22;5059248;28;46217;-73
2022/01/10 11:04:11;;;;;;;;;41.75;37.00;;;;;6.42;100.00;101230.81;5042593;28;46536;-70
2022/01/10 11:06:39;;;;;;;;;47.00;37.25;;;;;6.43;100.00;101237.75;5060778;28;45236;-73
2022/01/10 11:09:12;;;;;;;;;51.75;38.50;;;;;6.45;100.00;101237.72;5058227;28;45371;-70
2022/01/10 11:11:38;;;;;;;;;46.25;35.75;;;;;6.46;100.00;101237.72;5046224;28;46830;-71
2022/01/10 11:14:04;;;;;;;;;49.75;36.25;;;;;6.44;100.00;101236.88;5058237;28;45437;-72
2022/01/10 11:16:30;;;;;;;;;48.75;36.00;;;;;6.39;100.00;101238.69;5058546;28;45369;-72
2022/01/10 11:18:56;;;;;;;;;40.75;32.75;;;;;6.38;100.00;101237.81;5040031;28;45536;-72
2022/01/10 11:21:24;;;;;;;;;41.00;34.00;;;;;6.40;100.00;101237.81;5057688;28;45458;-72
2022/01/10 11:23:50;;;;;;;;;51.25;39.50;;;;;6.43;100.00;101243.84;5057534;28;45417;-69